createdAt,value
2022-11-22T00:00:25.758Z,5.20
2022-11-22T00:02:52.377Z,5.20
2022-11-22T00:05:19.215Z,5.20
2022-11-22T00:07:46.314Z,5.20
2022-11-22T00:10:14.495Z,5.20
2022-11-22T00:12:42.424Z,5.20
2022-11-22T00:15:10.035Z,5.10
2022-11-22T00:17:37.061Z,5.10
2022-11-22T00:20:05.288Z,5.10
2022-11-22T00:22:32.686Z,5.10
2022-11-22T00:25:00.093Z,5.10
2022-11-22T00:27:27.084Z,5.10
2022-11-22T00:29:53.825Z,5.10
2022-11-22T00:32:20.436Z,5.10
2022-11-22T00:34:47.057Z,5.10
2022-11-22T00:37:13.756Z,5.10
2022-11-22T00:39:40.391Z,5.10
2022-11-22T00:42:07.641Z,5.10
2022-11-22T00:44:34.255Z,5.00
2022-11-22T00:47:00.925Z,5.00
2022-11-22T00:49:28.031Z,5.10
2022-11-22T00:51:54.857Z,5.10
2022-11-22T00:54:21.457Z,5.00
2022-11-22T00:56:48.071Z,5.00
2022-11-22T00:59:14.665Z,5.00
2022-11-22T01:01:41.681Z,5.00
2022-11-22T01:04:08.434Z,5.00
2022-11-22T01:06:35.144Z,5.00
2022-11-22T01:09:01.799Z,5.00
2022-11-22T01:11:28.573Z,5.00
2022-11-22T01:13:55.443Z,5.00
2022-11-22T01:16:22.202Z,5.00
2022-11-22T01:18:48.838Z,5.00
2022-11-22T01:21:15.462Z,5.00
2022-11-22T01:23:42.101Z,5.00
2022-11-22T01:26:09.074Z,5.00
2022-11-22T01:28:36.660Z,5.00
2022-11-22T01:31:03.985Z,4.90
2022-11-22T01:33:30.758Z,5.00
2022-11-22T01:35:58.379Z,5.00
2022-11-22T01:38:25.338Z,5.00
2022-11-22T01:40:52.813Z,5.00
2022-11-22T01:43:21.907Z,5.00
2022-11-22T01:46:10.758Z,5.00
2022-11-22T01:48:52.631Z,5.10
2022-11-22T01:51:25.840Z,5.10
2022-11-22T01:53:56.200Z,5.10
2022-11-22T01:56:23.946Z,5.10
2022-11-22T01:58:56.728Z,5.10
2022-11-22T02:01:23.501Z,5.10
2022-11-22T02:03:52.692Z,5.10
2022-11-22T02:06:20.366Z,5.10
2022-11-22T02:09:00.578Z,5.10
2022-11-22T02:11:32.646Z,5.10
2022-11-22T02:14:00.746Z,5.10
2022-11-22T02:16:28.515Z,5.10
2022-11-22T02:18:55.119Z,5.10
2022-11-22T02:21:21.757Z,5.10
2022-11-22T02:23:56.813Z,5.10
2022-11-22T02:26:29.008Z,5.10
2022-11-22T02:29:00.917Z,5.20
2022-11-22T02:31:44.007Z,5.20
2022-11-22T02:34:12.014Z,5.20
2022-11-22T02:36:50.068Z,5.30
2022-11-22T02:39:20.972Z,5.20
2022-11-22T02:41:48.628Z,5.20
2022-11-22T02:44:16.504Z,5.20
2022-11-22T02:46:51.763Z,5.20
2022-11-22T02:49:24.396Z,5.20
2022-11-22T02:51:52.566Z,5.20
2022-11-22T02:54:19.617Z,5.20
2022-11-22T02:56:46.410Z,5.20
2022-11-22T02:59:13.040Z,5.10
2022-11-22T03:01:40.652Z,5.10
2022-11-22T03:04:07.398Z,5.10
2022-11-22T03:06:34.061Z,5.10
2022-11-22T03:09:00.702Z,5.10
2022-11-22T03:11:27.318Z,5.10
2022-11-22T03:13:54.345Z,5.10
2022-11-22T03:16:20.992Z,5.10
2022-11-22T03:18:47.614Z,5.10
2022-11-22T03:21:14.254Z,5.10
2022-11-22T03:23:40.841Z,5.10
2022-11-22T03:26:09.173Z,5.20
2022-11-22T03:28:35.914Z,5.20
2022-11-22T03:31:06.249Z,5.20
2022-11-22T03:33:33.718Z,5.10
2022-11-22T03:36:00.451Z,5.10
2022-11-22T03:38:27.043Z,5.10
2022-11-22T03:40:53.649Z,5.10
2022-11-22T03:43:20.914Z,5.20
2022-11-22T03:45:48.498Z,5.20
2022-11-22T03:48:15.420Z,5.30
2022-11-22T03:50:42.228Z,5.20
2022-11-22T03:53:08.907Z,5.20
2022-11-22T03:55:36.002Z,5.30
2022-11-22T03:58:02.973Z,5.30
2022-11-22T04:00:29.790Z,5.20
2022-11-22T04:02:56.449Z,5.20
2022-11-22T04:05:23.061Z,5.20
2022-11-22T04:07:49.781Z,5.20
2022-11-22T04:10:19.306Z,5.30
2022-11-22T04:12:48.927Z,5.30
2022-11-22T04:15:15.725Z,5.20
2022-11-22T04:17:45.080Z,5.20
2022-11-22T04:20:38.116Z,5.20
2022-11-22T04:23:10.351Z,5.20
2022-11-22T04:25:39.927Z,5.20
2022-11-22T04:28:08.189Z,5.30
2022-11-22T04:30:53.934Z,5.30
2022-11-22T04:33:20.802Z,5.30
2022-11-22T04:35:47.887Z,5.30
2022-11-22T04:38:15.605Z,5.20
2022-11-22T04:40:43.028Z,5.20
2022-11-22T04:43:42.199Z,5.20
2022-11-22T04:46:09.309Z,5.20
2022-11-22T04:48:36.336Z,5.30
2022-11-22T04:51:23.004Z,5.20
2022-11-22T04:53:49.837Z,5.20
2022-11-22T04:56:16.796Z,5.20
2022-11-22T04:58:43.513Z,5.20
2022-11-22T05:01:10.867Z,5.20
2022-11-22T05:03:37.602Z,5.20
2022-11-22T05:06:05.487Z,5.20
2022-11-22T05:08:32.263Z,5.20
2022-11-22T05:10:59.413Z,5.20
2022-11-22T05:13:38.352Z,5.20
2022-11-22T05:16:07.410Z,5.20
2022-11-22T05:18:34.208Z,5.20
2022-11-22T05:21:09.077Z,5.20
2022-11-22T05:23:54.229Z,5.20
2022-11-22T05:26:22.906Z,5.20
2022-11-22T05:28:49.902Z,5.20
2022-11-22T05:31:23.002Z,5.20
2022-11-22T05:33:51.632Z,5.20
2022-11-22T05:36:18.576Z,5.20
2022-11-22T05:38:45.331Z,5.20
2022-11-22T05:41:13.404Z,5.20
2022-11-22T05:43:40.709Z,5.30
2022-11-22T05:46:07.511Z,5.30
2022-11-22T05:48:34.554Z,5.30
2022-11-22T05:51:09.241Z,5.40
2022-11-22T05:53:36.766Z,5.40
2022-11-22T05:56:10.158Z,5.30
2022-11-22T05:58:37.610Z,5.40
2022-11-22T06:01:09.069Z,5.40
2022-11-22T06:03:36.453Z,5.40
2022-11-22T06:06:04.987Z,5.40
2022-11-22T06:08:34.275Z,5.40
2022-11-22T06:11:08.547Z,5.50
2022-11-22T06:13:36.827Z,5.40
2022-11-22T06:16:08.486Z,5.50
2022-11-22T06:18:35.820Z,5.50
2022-11-22T06:21:05.405Z,5.50
2022-11-22T06:23:32.214Z,5.50
2022-11-22T06:26:04.624Z,5.40
2022-11-22T06:28:32.947Z,5.40
2022-11-22T06:31:10.987Z,5.40
2022-11-22T06:33:38.140Z,5.40
2022-11-22T06:36:13.853Z,5.40
2022-11-22T06:38:42.233Z,5.40
2022-11-22T06:41:23.478Z,5.40
2022-11-22T06:43:51.947Z,5.40
2022-11-22T06:46:22.226Z,5.40
2022-11-22T06:48:49.484Z,5.30
2022-11-22T06:51:21.780Z,5.40
2022-11-22T06:53:49.772Z,5.40
2022-11-22T06:56:29.744Z,5.40
2022-11-22T06:58:56.752Z,5.40
2022-11-22T07:01:27.102Z,5.40
2022-11-22T07:04:00.743Z,5.40
2022-11-22T07:06:33.422Z,5.40
2022-11-22T07:09:01.847Z,5.40
2022-11-22T07:11:30.682Z,5.40
2022-11-22T07:14:03.475Z,5.40
2022-11-22T07:16:33.514Z,5.40
2022-11-22T07:19:00.644Z,5.40
2022-11-22T07:21:27.706Z,5.40
2022-11-22T07:23:55.391Z,5.40
2022-11-22T07:26:23.956Z,5.40
2022-11-22T07:28:50.641Z,5.30
2022-11-22T07:31:18.701Z,5.30
2022-11-22T07:33:46.909Z,5.40
2022-11-22T07:36:21.329Z,5.40
2022-11-22T07:38:49.043Z,5.40
2022-11-22T07:41:17.158Z,5.40
2022-11-22T07:43:44.193Z,5.40
2022-11-22T07:46:29.622Z,5.40
2022-11-22T07:48:56.848Z,5.40
2022-11-22T07:51:23.532Z,5.40
2022-11-22T07:53:50.377Z,5.40
2022-11-22T07:56:17.807Z,5.40
2022-11-22T07:58:44.496Z,5.40
2022-11-22T08:01:13.906Z,5.40
2022-11-22T08:03:40.882Z,5.40
2022-11-22T08:06:09.652Z,5.50
2022-11-22T08:08:37.138Z,5.50
2022-11-22T08:11:05.524Z,5.50
2022-11-22T08:13:32.507Z,5.50
2022-11-22T08:16:06.177Z,5.50
2022-11-22T08:18:33.919Z,5.60
2022-11-22T08:21:08.902Z,5.60
2022-11-22T08:23:36.155Z,5.60
2022-11-22T08:26:03.154Z,5.70
2022-11-22T08:28:30.003Z,5.70
2022-11-22T08:31:08.329Z,5.80
2022-11-22T08:33:34.994Z,5.80
2022-11-22T08:36:01.736Z,5.90
2022-11-22T08:38:28.398Z,5.90
2022-11-22T08:40:55.434Z,6.00
2022-11-22T08:43:22.185Z,6.00
2022-11-22T08:45:53.099Z,6.10
2022-11-22T08:48:22.546Z,6.10
2022-11-22T08:50:54.506Z,6.20
2022-11-22T08:53:21.464Z,6.30
2022-11-22T08:55:48.072Z,6.30
2022-11-22T08:58:15.049Z,6.30
2022-11-22T09:00:42.089Z,6.40
2022-11-22T09:03:08.742Z,6.40
2022-11-22T09:05:36.514Z,6.40
2022-11-22T09:10:50.064Z,6.50
2022-11-22T09:13:16.783Z,6.60
2022-11-22T09:15:43.444Z,6.70
2022-11-22T09:18:10.063Z,6.80
2022-11-22T09:20:36.659Z,6.80
2022-11-22T09:23:04.066Z,6.80
2022-11-22T09:25:30.749Z,6.80
2022-11-22T09:28:02.607Z,6.90
2022-11-22T09:30:30.306Z,6.90
2022-11-22T09:32:56.935Z,6.90
2022-11-22T09:35:23.654Z,7.00
2022-11-22T09:37:50.233Z,7.10
2022-11-22T09:40:17.149Z,7.10
2022-11-22T09:43:00.679Z,7.20
2022-11-22T09:45:34.857Z,7.30
2022-11-22T09:48:31.013Z,7.30
2022-11-22T09:51:12.439Z,7.40
2022-11-22T09:53:51.839Z,7.40
2022-11-22T09:56:21.486Z,7.50
2022-11-22T09:59:05.882Z,7.50
2022-11-22T10:01:42.359Z,7.50
2022-11-22T10:04:21.215Z,7.50
2022-11-22T10:06:54.059Z,7.60
2022-11-22T10:09:30.201Z,7.60
2022-11-22T10:12:03.713Z,7.60
2022-11-22T10:14:42.659Z,7.60
2022-11-22T10:17:39.767Z,7.60
2022-11-22T10:20:38.292Z,7.70
2022-11-22T10:23:14.964Z,7.70
2022-11-22T10:25:47.547Z,7.70
2022-11-22T10:28:36.543Z,7.70
2022-11-22T10:31:18.078Z,7.70
2022-11-22T10:34:06.469Z,7.70
2022-11-22T10:37:03.996Z,7.80
2022-11-22T10:39:55.179Z,7.80
2022-11-22T10:42:45.373Z,7.80
2022-11-22T10:45:34.019Z,7.80
2022-11-22T10:48:14.147Z,7.80
2022-11-22T10:51:18.637Z,7.80
2022-11-22T10:54:20.497Z,7.90
2022-11-22T10:57:14.063Z,7.90
2022-11-22T10:59:58.509Z,7.90
2022-11-22T11:02:36.667Z,7.90
2022-11-22T11:05:09.887Z,8.00
2022-11-22T11:07:41.833Z,8.00
2022-11-22T11:10:29.073Z,8.00
2022-11-22T11:13:14.584Z,8.00
2022-11-22T11:15:59.262Z,8.00
2022-11-22T11:19:04.095Z,8.00
2022-11-22T11:21:30.721Z,8.00
2022-11-22T11:23:57.504Z,8.10
2022-11-22T11:26:28.160Z,8.00
2022-11-22T11:29:16.797Z,8.00
2022-11-22T11:31:48.291Z,8.00
2022-11-22T11:34:23.774Z,8.10
2022-11-22T11:36:50.759Z,8.10
2022-11-22T11:39:28.645Z,8.10
2022-11-22T11:41:56.314Z,8.10
2022-11-22T11:44:36.956Z,8.10
2022-11-22T11:47:04.892Z,8.10
2022-11-22T11:49:34.121Z,8.20
2022-11-22T11:52:08.297Z,8.20
2022-11-22T11:54:48.189Z,8.20
2022-11-22T11:57:36.309Z,8.20
2022-11-22T12:00:18.604Z,8.30
2022-11-22T12:02:46.515Z,8.30
2022-11-22T12:05:13.182Z,8.30
2022-11-22T12:07:46.338Z,8.40
2022-11-22T12:10:38.641Z,8.50
2022-11-22T12:13:51.756Z,8.50
2022-11-22T12:16:31.802Z,8.60
2022-11-22T12:19:21.644Z,8.60
2022-11-22T12:22:13.834Z,8.60
2022-11-22T12:25:24.753Z,8.50
2022-11-22T12:27:44.672Z,8.50
2022-11-22T12:30:12.622Z,8.50
2022-11-22T12:32:54.158Z,8.50
2022-11-22T12:35:24.976Z,8.50
2022-11-22T12:38:23.826Z,8.50
2022-11-22T12:40:55.495Z,8.40
2022-11-22T12:43:35.533Z,8.40
2022-11-22T12:46:10.231Z,8.40
2022-11-22T12:48:56.734Z,8.40
2022-11-22T12:52:20.226Z,8.40
2022-11-22T12:55:14.770Z,8.40
2022-11-22T12:57:46.090Z,8.50
2022-11-22T13:00:36.151Z,8.50
2022-11-22T13:03:19.929Z,8.50
2022-11-22T13:05:54.056Z,8.50
2022-11-22T13:08:23.607Z,8.50
2022-11-22T13:10:56.417Z,8.40
2022-11-22T13:13:27.537Z,8.40
2022-11-22T13:15:58.584Z,8.40
2022-11-22T13:18:28.952Z,8.30
2022-11-22T13:21:25.561Z,8.30
2022-11-22T13:23:52.191Z,8.30
2022-11-22T13:27:08.789Z,8.30
2022-11-22T13:29:39.997Z,8.30
2022-11-22T13:32:12.409Z,8.30
2022-11-22T13:35:04.085Z,8.30
2022-11-22T13:37:34.017Z,8.20
2022-11-22T13:40:18.076Z,8.20
2022-11-22T13:42:44.759Z,8.10
2022-11-22T13:45:23.215Z,8.20
2022-11-22T13:47:50.321Z,8.20
2022-11-22T13:50:41.268Z,8.20
2022-11-22T13:53:20.067Z,8.20
2022-11-22T13:55:47.338Z,8.20
2022-11-22T13:58:25.944Z,8.20
2022-11-22T14:00:56.971Z,8.20
2022-11-22T14:03:50.560Z,8.20
2022-11-22T14:06:29.564Z,8.20
2022-11-22T14:09:34.598Z,8.20
2022-11-22T14:12:10.389Z,8.10
2022-11-22T14:15:13.628Z,8.10
2022-11-22T14:18:08.107Z,8.00
2022-11-22T14:20:56.212Z,8.00
2022-11-22T14:24:04.707Z,7.90
2022-11-22T14:26:52.703Z,7.90
2022-11-22T14:29:53.768Z,8.00
2022-11-22T14:32:26.030Z,8.00
2022-11-22T14:35:05.066Z,8.00
2022-11-22T14:37:34.658Z,7.90
2022-11-22T14:40:07.238Z,7.90
2022-11-22T14:42:36.977Z,7.90
2022-11-22T14:45:12.559Z,7.80
2022-11-22T14:47:52.814Z,7.80
2022-11-22T14:50:36.275Z,7.80
2022-11-22T14:53:40.892Z,7.80
2022-11-22T14:56:17.791Z,7.80
2022-11-22T14:58:59.141Z,7.80
2022-11-22T15:02:06.573Z,7.70
2022-11-22T15:09:13.087Z,7.70
2022-11-22T15:09:26.840Z,7.70
2022-11-22T15:11:33.425Z,7.70
2022-11-22T15:14:03.087Z,7.60
2022-11-22T15:59:43.007Z,7.20
2022-11-22T16:02:16.228Z,7.20
2022-11-22T16:06:08.554Z,7.20
2022-11-22T16:08:00.542Z,7.20
2022-11-22T16:10:42.606Z,7.20
2022-11-22T16:13:25.469Z,7.10
2022-11-22T16:16:18.683Z,7.10
2022-11-22T16:18:46.935Z,7.10
2022-11-22T16:21:21.211Z,7.20
2022-11-22T16:23:48.238Z,7.20
2022-11-22T16:26:20.457Z,7.20
2022-11-22T16:28:49.161Z,7.20
2022-11-22T16:31:29.779Z,7.10
2022-11-22T16:33:57.612Z,7.10
2022-11-22T16:36:28.533Z,7.10
2022-11-22T16:38:55.399Z,7.10
2022-11-22T16:41:24.536Z,7.10
2022-11-22T16:44:01.139Z,7.10
2022-11-22T16:46:28.106Z,7.10
2022-11-22T16:48:56.340Z,7.10
2022-11-22T16:51:24.287Z,7.20
2022-11-22T16:53:53.369Z,7.20
2022-11-22T16:56:23.690Z,7.20
2022-11-22T16:58:52.413Z,7.20
2022-11-22T17:01:24.544Z,7.20
2022-11-22T17:03:54.402Z,7.20
2022-11-22T17:06:26.858Z,7.20
2022-11-22T17:08:55.574Z,7.20
2022-11-22T17:11:32.461Z,7.20
2022-11-22T17:14:00.056Z,7.20
2022-11-22T17:16:26.791Z,7.20
2022-11-22T17:18:53.500Z,7.20
2022-11-22T17:21:30.316Z,7.20
2022-11-22T17:24:03.181Z,7.20
2022-11-22T17:26:29.947Z,7.10
2022-11-22T17:28:56.814Z,7.10
2022-11-22T17:31:25.044Z,7.10
2022-11-22T17:33:56.722Z,7.00
2022-11-22T17:36:34.634Z,7.00
2022-11-22T17:39:04.356Z,7.00
2022-11-22T17:41:31.750Z,7.00
2022-11-22T17:43:58.520Z,6.90
2022-11-22T17:46:25.606Z,6.90
2022-11-22T17:48:57.793Z,6.90
2022-11-22T17:51:25.382Z,6.90
2022-11-22T17:53:52.961Z,6.90
2022-11-22T17:56:20.208Z,7.00
2022-11-22T17:58:47.585Z,6.90
2022-11-22T18:01:16.707Z,7.00
2022-11-22T18:03:44.049Z,6.90
2022-11-22T18:06:11.835Z,6.90
2022-11-22T18:08:45.265Z,6.90
2022-11-22T18:11:13.523Z,6.90
2022-11-22T18:13:40.399Z,6.90
2022-11-22T18:16:11.983Z,6.90
2022-11-22T18:21:26.417Z,6.90
2022-11-22T18:23:53.243Z,6.90
2022-11-22T18:31:54.861Z,6.90
2022-11-22T18:34:22.803Z,6.90
2022-11-22T18:36:55.909Z,6.80
2022-11-22T18:39:26.439Z,6.90
2022-11-22T18:41:53.119Z,6.90
2022-11-22T18:44:20.130Z,6.90
2022-11-22T18:46:47.301Z,6.80
2022-11-22T18:49:13.998Z,6.90
2022-11-22T18:51:40.803Z,6.80
2022-11-22T18:54:09.903Z,6.80
2022-11-22T18:56:39.958Z,6.80
2022-11-22T18:59:08.311Z,6.80
2022-11-22T19:01:35.464Z,6.80
2022-11-22T19:04:03.074Z,6.80
2022-11-22T19:06:30.142Z,6.80
2022-11-22T19:08:57.033Z,6.80
2022-11-22T19:11:23.643Z,6.80
2022-11-22T19:13:50.416Z,6.80
2022-11-22T19:16:22.433Z,6.80
2022-11-22T19:18:50.010Z,6.80
2022-11-22T19:21:23.088Z,6.80
2022-11-22T19:23:50.607Z,6.80
2022-11-22T19:26:20.448Z,6.80
2022-11-22T19:28:48.593Z,6.80
2022-11-22T19:31:17.659Z,6.80
2022-11-22T19:33:45.103Z,6.80
2022-11-22T19:36:17.584Z,6.80
2022-11-22T19:38:44.949Z,6.80
2022-11-22T19:41:13.868Z,6.80
2022-11-22T19:43:40.495Z,6.80
2022-11-22T19:46:07.147Z,6.80
2022-11-22T19:48:35.720Z,6.80
2022-11-22T19:51:06.761Z,6.80
2022-11-22T19:53:33.638Z,6.80
2022-11-22T19:56:10.583Z,6.80
2022-11-22T19:58:37.290Z,6.80
2022-11-22T20:01:09.766Z,6.80
2022-11-22T20:03:38.205Z,6.80
2022-11-22T20:06:06.714Z,6.80
2022-11-22T20:08:34.024Z,6.80
2022-11-22T20:11:11.324Z,6.80
2022-11-22T20:13:40.561Z,6.80
2022-11-22T20:16:28.819Z,6.80
2022-11-22T20:19:00.690Z,6.80
2022-11-22T20:21:29.109Z,6.80
2022-11-22T20:23:56.847Z,6.80
2022-11-22T20:26:25.122Z,6.80
2022-11-22T20:29:00.935Z,6.80
2022-11-22T20:31:30.261Z,6.80
2022-11-22T20:33:58.972Z,6.70
2022-11-22T20:36:28.188Z,6.70
2022-11-22T20:38:55.970Z,6.70
2022-11-22T20:41:25.932Z,6.70
2022-11-22T20:43:52.951Z,6.70
2022-11-22T20:46:27.783Z,6.70
2022-11-22T20:48:58.163Z,6.80
2022-11-22T20:51:28.557Z,6.80
2022-11-22T20:53:57.399Z,6.80
2022-11-22T20:56:25.169Z,6.80
2022-11-22T20:58:52.474Z,6.80
2022-11-22T21:01:24.869Z,6.80
2022-11-22T21:03:52.597Z,6.80
2022-11-22T21:06:20.905Z,6.80
2022-11-22T21:08:47.876Z,6.80
2022-11-22T21:11:15.710Z,6.80
2022-11-22T21:13:43.314Z,6.80
2022-11-22T21:16:22.695Z,6.80
2022-11-22T21:19:01.446Z,6.70
2022-11-22T21:21:29.174Z,6.80
2022-11-22T21:24:01.294Z,6.70
2022-11-22T21:26:28.343Z,6.80
2022-11-22T21:28:56.037Z,6.80
2022-11-22T21:31:23.301Z,6.80
2022-11-22T21:33:51.259Z,6.80
2022-11-22T21:36:18.831Z,6.80
2022-11-22T21:38:45.793Z,6.80
2022-11-22T21:44:05.082Z,6.80
2022-11-22T21:46:34.636Z,6.80
2022-11-22T21:49:01.650Z,6.80
2022-11-22T21:51:30.884Z,6.80
2022-11-22T21:54:01.594Z,6.80
2022-11-22T21:56:29.084Z,6.80
2022-11-22T21:58:58.237Z,6.90
2022-11-22T22:01:25.389Z,6.90
2022-11-22T22:03:52.457Z,6.80
2022-11-22T22:06:19.255Z,6.80
2022-11-22T22:08:45.928Z,6.80
2022-11-22T22:11:12.700Z,6.80
2022-11-22T22:13:39.402Z,6.80
2022-11-22T22:16:07.191Z,6.80
2022-11-22T22:18:37.812Z,6.70
2022-11-22T22:21:05.765Z,6.80
2022-11-22T22:23:34.459Z,6.70
2022-11-22T22:26:03.007Z,6.70
2022-11-22T22:28:34.433Z,6.70
2022-11-22T22:31:07.315Z,6.70
2022-11-22T22:33:39.376Z,6.70
2022-11-22T22:36:07.396Z,6.70
2022-11-22T22:38:34.478Z,6.70
2022-11-22T22:41:02.756Z,6.70
2022-11-22T22:43:33.711Z,6.70
2022-11-22T22:46:20.956Z,6.70
2022-11-22T22:48:48.659Z,6.70
2022-11-22T22:51:21.037Z,6.70
2022-11-22T22:53:48.156Z,6.70
2022-11-22T22:56:16.775Z,6.70
2022-11-22T22:58:43.555Z,6.70
2022-11-22T23:01:18.820Z,6.70
2022-11-22T23:03:49.701Z,6.70
2022-11-22T23:06:16.780Z,6.70
2022-11-22T23:08:50.864Z,6.70
2022-11-22T23:11:20.385Z,6.70
2022-11-22T23:13:47.053Z,6.70
2022-11-22T23:16:14.709Z,6.70
2022-11-22T23:18:43.902Z,6.70
2022-11-22T23:21:13.165Z,6.70
2022-11-22T23:23:40.292Z,6.70
2022-11-22T23:26:09.712Z,6.70
2022-11-22T23:28:36.990Z,6.60
2022-11-22T23:31:13.468Z,6.60
2022-11-22T23:33:41.484Z,6.60
2022-11-22T23:36:11.180Z,6.60
2022-11-22T23:38:38.296Z,6.60
2022-11-22T23:41:05.352Z,6.50
2022-11-22T23:43:32.353Z,6.50
2022-11-22T23:45:59.114Z,6.50
2022-11-22T23:48:26.996Z,6.50
2022-11-22T23:50:54.204Z,6.50
2022-11-22T23:53:21.648Z,6.50
2022-11-22T23:55:48.286Z,6.50
2022-11-22T23:58:14.888Z,6.50
